sensor_id;sensor_type;location;lat;lon;timestamp;P1;durP1;ratioP1;P2;durP2;ratioP2
39738;SDS011;25422;48.286;8.484;2023-03-31T00:00:44;9.95;;;2.63;;
39738;SDS011;25422;48.286;8.484;2023-03-31T00:03:13;7.55;;;2.50;;
39738;SDS011;25422;48.286;8.484;2023-03-31T00:05:45;10.35;;;3.13;;
39738;SDS011;25422;48.286;8.484;2023-03-31T00:08:12;12.23;;;3.25;;
39738;SDS011;25422;48.286;8.484;2023-03-31T00:10:38;9.43;;;3.25;;
39738;SDS011;25422;48.286;8.484;2023-03-31T00:13:10;12.63;;;3.15;;
39738;SDS011;25422;48.286;8.484;2023-03-31T00:15:35;5.85;;;2.92;;
39738;SDS011;25422;48.286;8.484;2023-03-31T00:18:01;13.65;;;3.30;;
39738;SDS011;25422;48.286;8.484;2023-03-31T00:20:26;8.82;;;3.03;;
39738;SDS011;25422;48.286;8.484;2023-03-31T00:22:52;7.68;;;2.78;;
39738;SDS011;25422;48.286;8.484;2023-03-31T00:25:18;9.57;;;3.00;;
39738;SDS011;25422;48.286;8.484;2023-03-31T00:27:45;8.95;;;2.85;;
39738;SDS011;25422;48.286;8.484;2023-03-31T00:30:13;8.35;;;3.20;;
39738;SDS011;25422;48.286;8.484;2023-03-31T00:32:39;6.97;;;3.05;;
39738;SDS011;25422;48.286;8.484;2023-03-31T00:35:05;9.07;;;2.80;;
39738;SDS011;25422;48.286;8.484;2023-03-31T00:37:30;8.93;;;3.38;;
39738;SDS011;25422;48.286;8.484;2023-03-31T00:39:58;9.07;;;3.58;;
39738;SDS011;25422;48.286;8.484;2023-03-31T00:42:23;10.82;;;3.22;;
39738;SDS011;25422;48.286;8.484;2023-03-31T00:48:13;10.13;;;2.80;;
39738;SDS011;25422;48.286;8.484;2023-03-31T00:50:36;9.82;;;3.03;;
39738;SDS011;25422;48.286;8.484;2023-03-31T00:53:11;7.35;;;2.72;;
39738;SDS011;25422;48.286;8.484;2023-03-31T00:56:00;9.60;;;3.20;;
39738;SDS011;25422;48.286;8.484;2023-03-31T00:58:31;12.43;;;3.55;;
39738;SDS011;25422;48.286;8.484;2023-03-31T01:00:57;11.35;;;3.90;;
39738;SDS011;25422;48.286;8.484;2023-03-31T01:03:24;10.43;;;3.60;;
39738;SDS011;25422;48.286;8.484;2023-03-31T01:05:54;9.57;;;3.90;;
39738;SDS011;25422;48.286;8.484;2023-03-31T01:08:24;9.88;;;4.18;;
39738;SDS011;25422;48.286;8.484;2023-03-31T01:10:56;11.60;;;4.72;;
39738;SDS011;25422;48.286;8.484;2023-03-31T01:13:24;12.77;;;4.50;;
39738;SDS011;25422;48.286;8.484;2023-03-31T01:15:52;12.50;;;4.57;;
39738;SDS011;25422;48.286;8.484;2023-03-31T01:18:17;12.43;;;4.18;;
39738;SDS011;25422;48.286;8.484;2023-03-31T01:26:41;13.35;;;4.90;;
39738;SDS011;25422;48.286;8.484;2023-03-31T01:29:39;10.73;;;4.88;;
39738;SDS011;25422;48.286;8.484;2023-03-31T01:49:06;11.57;;;5.53;;
39738;SDS011;25422;48.286;8.484;2023-03-31T01:52:03;12.02;;;5.22;;
39738;SDS011;25422;48.286;8.484;2023-03-31T01:57:28;13.05;;;5.45;;
39738;SDS011;25422;48.286;8.484;2023-03-31T02:02:38;14.75;;;4.63;;
39738;SDS011;25422;48.286;8.484;2023-03-31T02:05:09;14.02;;;5.63;;
39738;SDS011;25422;48.286;8.484;2023-03-31T02:07:42;13.65;;;5.25;;
39738;SDS011;25422;48.286;8.484;2023-03-31T02:10:13;12.68;;;5.57;;
39738;SDS011;25422;48.286;8.484;2023-03-31T02:12:41;11.52;;;5.47;;
39738;SDS011;25422;48.286;8.484;2023-03-31T02:15:10;15.77;;;6.13;;
39738;SDS011;25422;48.286;8.484;2023-03-31T02:17:42;12.85;;;5.45;;
39738;SDS011;25422;48.286;8.484;2023-03-31T02:22:40;10.20;;;5.07;;
39738;SDS011;25422;48.286;8.484;2023-03-31T02:25:09;10.93;;;5.40;;
39738;SDS011;25422;48.286;8.484;2023-03-31T02:27:39;9.57;;;4.95;;
39738;SDS011;25422;48.286;8.484;2023-03-31T02:30:07;9.65;;;5.28;;
39738;SDS011;25422;48.286;8.484;2023-03-31T02:35:05;12.57;;;5.50;;
39738;SDS011;25422;48.286;8.484;2023-03-31T02:37:34;12.38;;;5.63;;
39738;SDS011;25422;48.286;8.484;2023-03-31T02:40:02;12.30;;;5.65;;
39738;SDS011;25422;48.286;8.484;2023-03-31T02:42:36;13.30;;;5.47;;
39738;SDS011;25422;48.286;8.484;2023-03-31T02:45:03;11.73;;;5.22;;
39738;SDS011;25422;48.286;8.484;2023-03-31T02:47:29;14.40;;;6.63;;
39738;SDS011;25422;48.286;8.484;2023-03-31T02:52:44;14.38;;;6.07;;
39738;SDS011;25422;48.286;8.484;2023-03-31T02:55:19;13.73;;;6.00;;
39738;SDS011;25422;48.286;8.484;2023-03-31T02:57:53;10.77;;;6.25;;
39738;SDS011;25422;48.286;8.484;2023-03-31T03:03:49;10.68;;;5.78;;
39738;SDS011;25422;48.286;8.484;2023-03-31T03:09:26;12.82;;;5.82;;
39738;SDS011;25422;48.286;8.484;2023-03-31T03:12:21;14.50;;;5.95;;
39738;SDS011;25422;48.286;8.484;2023-03-31T03:14:59;9.82;;;6.00;;
39738;SDS011;25422;48.286;8.484;2023-03-31T03:17:33;12.32;;;6.15;;
39738;SDS011;25422;48.286;8.484;2023-03-31T03:20:02;13.73;;;6.15;;
39738;SDS011;25422;48.286;8.484;2023-03-31T03:22:33;9.80;;;5.80;;
39738;SDS011;25422;48.286;8.484;2023-03-31T03:25:00;11.50;;;5.80;;
39738;SDS011;25422;48.286;8.484;2023-03-31T03:27:26;15.73;;;7.35;;
39738;SDS011;25422;48.286;8.484;2023-03-31T03:29:52;15.65;;;7.22;;
39738;SDS011;25422;48.286;8.484;2023-03-31T03:32:18;14.23;;;8.10;;
39738;SDS011;25422;48.286;8.484;2023-03-31T03:34:43;16.95;;;7.82;;
39738;SDS011;25422;48.286;8.484;2023-03-31T03:37:09;17.20;;;8.02;;
39738;SDS011;25422;48.286;8.484;2023-03-31T03:39:34;18.13;;;9.00;;
39738;SDS011;25422;48.286;8.484;2023-03-31T03:41:59;18.75;;;8.55;;
39738;SDS011;25422;48.286;8.484;2023-03-31T03:44:25;21.08;;;8.30;;
39738;SDS011;25422;48.286;8.484;2023-03-31T03:46:51;20.08;;;8.07;;
39738;SDS011;25422;48.286;8.484;2023-03-31T03:49:16;20.02;;;7.72;;
39738;SDS011;25422;48.286;8.484;2023-03-31T03:51:41;16.58;;;7.90;;
39738;SDS011;25422;48.286;8.484;2023-03-31T03:54:07;16.35;;;7.40;;
39738;SDS011;25422;48.286;8.484;2023-03-31T03:56:32;16.88;;;8.35;;
39738;SDS011;25422;48.286;8.484;2023-03-31T03:58:58;17.02;;;8.10;;
39738;SDS011;25422;48.286;8.484;2023-03-31T04:01:23;13.77;;;7.47;;
39738;SDS011;25422;48.286;8.484;2023-03-31T04:03:49;14.10;;;7.75;;
39738;SDS011;25422;48.286;8.484;2023-03-31T04:06:14;19.70;;;8.02;;
39738;SDS011;25422;48.286;8.484;2023-03-31T04:08:40;16.88;;;7.95;;
39738;SDS011;25422;48.286;8.484;2023-03-31T04:11:10;14.88;;;7.18;;
39738;SDS011;25422;48.286;8.484;2023-03-31T04:13:38;12.43;;;7.30;;
39738;SDS011;25422;48.286;8.484;2023-03-31T04:16:03;17.38;;;7.60;;
39738;SDS011;25422;48.286;8.484;2023-03-31T04:18:29;17.77;;;7.28;;
39738;SDS011;25422;48.286;8.484;2023-03-31T04:20:55;16.55;;;7.00;;
39738;SDS011;25422;48.286;8.484;2023-03-31T04:23:32;13.65;;;7.13;;
39738;SDS011;25422;48.286;8.484;2023-03-31T04:26:02;16.83;;;6.95;;
39738;SDS011;25422;48.286;8.484;2023-03-31T04:28:32;11.98;;;7.03;;
39738;SDS011;25422;48.286;8.484;2023-03-31T04:30:59;16.85;;;6.90;;
39738;SDS011;25422;48.286;8.484;2023-03-31T04:33:25;12.70;;;6.35;;
39738;SDS011;25422;48.286;8.484;2023-03-31T04:35:51;15.27;;;6.40;;
39738;SDS011;25422;48.286;8.484;2023-03-31T04:38:19;12.68;;;6.38;;
39738;SDS011;25422;48.286;8.484;2023-03-31T04:40:50;13.23;;;6.25;;
39738;SDS011;25422;48.286;8.484;2023-03-31T04:43:17;11.07;;;6.30;;
39738;SDS011;25422;48.286;8.484;2023-03-31T04:45:44;14.63;;;7.25;;
39738;SDS011;25422;48.286;8.484;2023-03-31T04:48:09;12.77;;;6.65;;
39738;SDS011;25422;48.286;8.484;2023-03-31T04:50:35;11.02;;;6.57;;
39738;SDS011;25422;48.286;8.484;2023-03-31T04:53:02;16.98;;;7.13;;
39738;SDS011;25422;48.286;8.484;2023-03-31T04:55:28;13.85;;;7.18;;
39738;SDS011;25422;48.286;8.484;2023-03-31T04:57:53;16.33;;;7.88;;
39738;SDS011;25422;48.286;8.484;2023-03-31T05:00:19;13.50;;;7.47;;
39738;SDS011;25422;48.286;8.484;2023-03-31T05:02:45;16.63;;;7.53;;
39738;SDS011;25422;48.286;8.484;2023-03-31T05:05:10;12.85;;;7.32;;
39738;SDS011;25422;48.286;8.484;2023-03-31T05:07:36;19.73;;;7.63;;
39738;SDS011;25422;48.286;8.484;2023-03-31T05:10:02;12.18;;;7.15;;
39738;SDS011;25422;48.286;8.484;2023-03-31T05:12:28;14.48;;;7.28;;
39738;SDS011;25422;48.286;8.484;2023-03-31T05:14:53;12.90;;;7.15;;
39738;SDS011;25422;48.286;8.484;2023-03-31T05:17:19;13.55;;;8.45;;
39738;SDS011;25422;48.286;8.484;2023-03-31T05:19:44;14.52;;;8.25;;
39738;SDS011;25422;48.286;8.484;2023-03-31T05:22:09;12.50;;;7.35;;
39738;SDS011;25422;48.286;8.484;2023-03-31T05:24:35;15.75;;;7.82;;
39738;SDS011;25422;48.286;8.484;2023-03-31T05:27:00;13.55;;;7.78;;
39738;SDS011;25422;48.286;8.484;2023-03-31T05:29:26;15.13;;;7.95;;
39738;SDS011;25422;48.286;8.484;2023-03-31T05:31:51;14.27;;;8.20;;
39738;SDS011;25422;48.286;8.484;2023-03-31T05:34:20;13.52;;;7.47;;
39738;SDS011;25422;48.286;8.484;2023-03-31T05:36:45;16.15;;;7.60;;
39738;SDS011;25422;48.286;8.484;2023-03-31T05:39:12;15.73;;;7.63;;
39738;SDS011;25422;48.286;8.484;2023-03-31T05:41:37;14.15;;;7.03;;
39738;SDS011;25422;48.286;8.484;2023-03-31T05:44:03;13.68;;;7.00;;
39738;SDS011;25422;48.286;8.484;2023-03-31T05:46:28;13.23;;;7.97;;
39738;SDS011;25422;48.286;8.484;2023-03-31T05:48:54;15.52;;;8.05;;
39738;SDS011;25422;48.286;8.484;2023-03-31T05:51:20;14.50;;;8.45;;
39738;SDS011;25422;48.286;8.484;2023-03-31T05:53:46;19.65;;;8.57;;
39738;SDS011;25422;48.286;8.484;2023-03-31T05:56:12;13.07;;;8.15;;
39738;SDS011;25422;48.286;8.484;2023-03-31T05:58:37;13.18;;;7.78;;
39738;SDS011;25422;48.286;8.484;2023-03-31T06:01:07;14.55;;;8.13;;
39738;SDS011;25422;48.286;8.484;2023-03-31T06:03:38;13.38;;;7.85;;
39738;SDS011;25422;48.286;8.484;2023-03-31T06:06:05;13.13;;;8.73;;
39738;SDS011;25422;48.286;8.484;2023-03-31T06:08:32;17.83;;;8.48;;
39738;SDS011;25422;48.286;8.484;2023-03-31T06:10:59;18.65;;;8.93;;
39738;SDS011;25422;48.286;8.484;2023-03-31T06:13:27;19.55;;;9.82;;
39738;SDS011;25422;48.286;8.484;2023-03-31T06:15:56;22.67;;;12.00;;
39738;SDS011;25422;48.286;8.484;2023-03-31T06:18:23;21.27;;;10.68;;
39738;SDS011;25422;48.286;8.484;2023-03-31T06:20:49;13.13;;;8.45;;
39738;SDS011;25422;48.286;8.484;2023-03-31T06:23:15;19.70;;;8.68;;
39738;SDS011;25422;48.286;8.484;2023-03-31T06:25:41;21.65;;;9.20;;
39738;SDS011;25422;48.286;8.484;2023-03-31T06:28:06;8.73;;;4.57;;
39738;SDS011;25422;48.286;8.484;2023-03-31T06:30:32;7.10;;;3.40;;
39738;SDS011;25422;48.286;8.484;2023-03-31T06:32:57;5.20;;;3.90;;
39738;SDS011;25422;48.286;8.484;2023-03-31T06:35:23;6.07;;;3.03;;
39738;SDS011;25422;48.286;8.484;2023-03-31T06:37:48;3.50;;;2.50;;
39738;SDS011;25422;48.286;8.484;2023-03-31T06:40:14;4.07;;;2.70;;
39738;SDS011;25422;48.286;8.484;2023-03-31T06:42:39;2.78;;;2.30;;
39738;SDS011;25422;48.286;8.484;2023-03-31T06:45:05;5.30;;;2.80;;
39738;SDS011;25422;48.286;8.484;2023-03-31T06:47:31;3.83;;;2.42;;
39738;SDS011;25422;48.286;8.484;2023-03-31T06:49:56;4.90;;;2.72;;
39738;SDS011;25422;48.286;8.484;2023-03-31T06:52:21;4.47;;;1.95;;
39738;SDS011;25422;48.286;8.484;2023-03-31T06:54:47;5.30;;;1.60;;
39738;SDS011;25422;48.286;8.484;2023-03-31T06:57:12;3.40;;;1.70;;
39738;SDS011;25422;48.286;8.484;2023-03-31T06:59:38;2.80;;;2.00;;
39738;SDS011;25422;48.286;8.484;2023-03-31T07:02:03;2.58;;;1.88;;
39738;SDS011;25422;48.286;8.484;2023-03-31T07:04:29;3.15;;;2.05;;
39738;SDS011;25422;48.286;8.484;2023-03-31T07:06:54;2.60;;;2.22;;
39738;SDS011;25422;48.286;8.484;2023-03-31T07:09:19;13.25;;;6.53;;
39738;SDS011;25422;48.286;8.484;2023-03-31T07:11:47;12.23;;;6.05;;
39738;SDS011;25422;48.286;8.484;2023-03-31T07:14:13;6.38;;;3.33;;
39738;SDS011;25422;48.286;8.484;2023-03-31T07:16:38;4.90;;;3.45;;
39738;SDS011;25422;48.286;8.484;2023-03-31T07:19:05;7.65;;;4.32;;
39738;SDS011;25422;48.286;8.484;2023-03-31T07:21:32;4.10;;;2.75;;
39738;SDS011;25422;48.286;8.484;2023-03-31T07:23:58;3.70;;;2.35;;
39738;SDS011;25422;48.286;8.484;2023-03-31T07:26:23;2.38;;;1.40;;
39738;SDS011;25422;48.286;8.484;2023-03-31T07:28:49;2.33;;;1.73;;
39738;SDS011;25422;48.286;8.484;2023-03-31T07:31:16;6.18;;;3.60;;
39738;SDS011;25422;48.286;8.484;2023-03-31T07:33:41;1.90;;;1.70;;
39738;SDS011;25422;48.286;8.484;2023-03-31T07:36:07;2.35;;;1.40;;
39738;SDS011;25422;48.286;8.484;2023-03-31T07:38:33;1.80;;;1.70;;
39738;SDS011;25422;48.286;8.484;2023-03-31T07:40:59;2.50;;;1.65;;
39738;SDS011;25422;48.286;8.484;2023-03-31T07:43:24;1.05;;;0.90;;
39738;SDS011;25422;48.286;8.484;2023-03-31T07:45:50;1.67;;;0.80;;
39738;SDS011;25422;48.286;8.484;2023-03-31T07:48:15;2.45;;;0.82;;
39738;SDS011;25422;48.286;8.484;2023-03-31T07:50:40;4.20;;;0.90;;
39738;SDS011;25422;48.286;8.484;2023-03-31T07:53:14;2.35;;;0.70;;
39738;SDS011;25422;48.286;8.484;2023-03-31T07:55:39;3.15;;;0.80;;
39738;SDS011;25422;48.286;8.484;2023-03-31T07:58:05;1.63;;;1.20;;
39738;SDS011;25422;48.286;8.484;2023-03-31T08:00:30;2.72;;;1.08;;
39738;SDS011;25422;48.286;8.484;2023-03-31T08:02:56;1.95;;;1.13;;
39738;SDS011;25422;48.286;8.484;2023-03-31T08:05:21;1.77;;;1.00;;
39738;SDS011;25422;48.286;8.484;2023-03-31T08:07:48;1.00;;;0.90;;
39738;SDS011;25422;48.286;8.484;2023-03-31T08:10:15;3.53;;;0.95;;
39738;SDS011;25422;48.286;8.484;2023-03-31T08:12:43;4.55;;;1.30;;
39738;SDS011;25422;48.286;8.484;2023-03-31T08:15:08;2.58;;;1.40;;
39738;SDS011;25422;48.286;8.484;2023-03-31T08:17:35;4.45;;;0.95;;
39738;SDS011;25422;48.286;8.484;2023-03-31T08:20:01;2.00;;;0.75;;
39738;SDS011;25422;48.286;8.484;2023-03-31T08:22:28;4.13;;;0.93;;
39738;SDS011;25422;48.286;8.484;2023-03-31T08:24:54;2.53;;;1.02;;
39738;SDS011;25422;48.286;8.484;2023-03-31T08:27:19;3.33;;;1.58;;
39738;SDS011;25422;48.286;8.484;2023-03-31T08:29:45;4.13;;;1.10;;
39738;SDS011;25422;48.286;8.484;2023-03-31T08:32:10;2.00;;;1.02;;
39738;SDS011;25422;48.286;8.484;2023-03-31T08:34:36;1.63;;;0.82;;
39738;SDS011;25422;48.286;8.484;2023-03-31T08:37:02;1.73;;;1.00;;
39738;SDS011;25422;48.286;8.484;2023-03-31T08:39:27;3.08;;;1.00;;
39738;SDS011;25422;48.286;8.484;2023-03-31T08:41:54;2.45;;;1.00;;
39738;SDS011;25422;48.286;8.484;2023-03-31T08:46:49;1.73;;;0.73;;
39738;SDS011;25422;48.286;8.484;2023-03-31T08:49:19;3.38;;;1.08;;
39738;SDS011;25422;48.286;8.484;2023-03-31T08:51:47;2.53;;;1.17;;
39738;SDS011;25422;48.286;8.484;2023-03-31T08:56:52;3.15;;;0.93;;
39738;SDS011;25422;48.286;8.484;2023-03-31T08:59:31;3.05;;;1.27;;
39738;SDS011;25422;48.286;8.484;2023-03-31T09:21:03;4.47;;;1.33;;
39738;SDS011;25422;48.286;8.484;2023-03-31T09:23:42;4.82;;;1.77;;
39738;SDS011;25422;48.286;8.484;2023-03-31T09:26:26;8.57;;;1.90;;
39738;SDS011;25422;48.286;8.484;2023-03-31T09:28:58;6.65;;;2.00;;
39738;SDS011;25422;48.286;8.484;2023-03-31T09:31:27;9.10;;;2.30;;
39738;SDS011;25422;48.286;8.484;2023-03-31T09:33:56;5.15;;;1.73;;
39738;SDS011;25422;48.286;8.484;2023-03-31T09:36:25;6.93;;;1.75;;
39738;SDS011;25422;48.286;8.484;2023-03-31T09:38:51;5.70;;;1.77;;
39738;SDS011;25422;48.286;8.484;2023-03-31T09:41:16;6.32;;;1.63;;
39738;SDS011;25422;48.286;8.484;2023-03-31T09:43:43;4.18;;;1.70;;
39738;SDS011;25422;48.286;8.484;2023-03-31T09:49:05;7.22;;;1.60;;
39738;SDS011;25422;48.286;8.484;2023-03-31T09:51:39;7.47;;;1.70;;
39738;SDS011;25422;48.286;8.484;2023-03-31T09:57:15;6.93;;;1.73;;
39738;SDS011;25422;48.286;8.484;2023-03-31T09:59:51;6.15;;;1.73;;
39738;SDS011;25422;48.286;8.484;2023-03-31T10:04:45;5.57;;;1.73;;
39738;SDS011;25422;48.286;8.484;2023-03-31T10:07:10;6.82;;;1.80;;
39738;SDS011;25422;48.286;8.484;2023-03-31T10:09:37;5.45;;;1.60;;
39738;SDS011;25422;48.286;8.484;2023-03-31T10:12:05;5.75;;;1.67;;
39738;SDS011;25422;48.286;8.484;2023-03-31T10:16:58;7.80;;;1.70;;
39738;SDS011;25422;48.286;8.484;2023-03-31T10:19:33;5.43;;;1.48;;
39738;SDS011;25422;48.286;8.484;2023-03-31T10:22:04;5.13;;;1.50;;
39738;SDS011;25422;48.286;8.484;2023-03-31T10:24:41;4.00;;;1.25;;
39738;SDS011;25422;48.286;8.484;2023-03-31T10:27:15;4.40;;;1.50;;
39738;SDS011;25422;48.286;8.484;2023-03-31T10:29:53;3.60;;;1.27;;
39738;SDS011;25422;48.286;8.484;2023-03-31T10:32:22;5.47;;;1.63;;
39738;SDS011;25422;48.286;8.484;2023-03-31T10:37:18;5.70;;;1.45;;
39738;SDS011;25422;48.286;8.484;2023-03-31T10:39:47;4.72;;;1.60;;
39738;SDS011;25422;48.286;8.484;2023-03-31T10:42:21;4.13;;;1.30;;
39738;SDS011;25422;48.286;8.484;2023-03-31T10:44:47;5.75;;;1.63;;
39738;SDS011;25422;48.286;8.484;2023-03-31T10:47:20;6.32;;;1.70;;
39738;SDS011;25422;48.286;8.484;2023-03-31T10:49:49;7.88;;;1.70;;
39738;SDS011;25422;48.286;8.484;2023-03-31T10:52:24;8.48;;;1.90;;
39738;SDS011;25422;48.286;8.484;2023-03-31T10:54:55;8.13;;;1.92;;
39738;SDS011;25422;48.286;8.484;2023-03-31T10:57:26;11.45;;;2.10;;
39738;SDS011;25422;48.286;8.484;2023-03-31T11:02:41;4.18;;;1.00;;
39738;SDS011;25422;48.286;8.484;2023-03-31T11:10:48;2.78;;;1.10;;
39738;SDS011;25422;48.286;8.484;2023-03-31T11:19:09;4.05;;;0.90;;
39738;SDS011;25422;48.286;8.484;2023-03-31T11:24:35;0.90;;;0.90;;
39738;SDS011;25422;48.286;8.484;2023-03-31T11:27:28;3.38;;;1.30;;
39738;SDS011;25422;48.286;8.484;2023-03-31T11:30:00;3.50;;;1.00;;
39738;SDS011;25422;48.286;8.484;2023-03-31T11:38:37;2.40;;;0.95;;
39738;SDS011;25422;48.286;8.484;2023-03-31T11:41:15;2.90;;;1.20;;
39738;SDS011;25422;48.286;8.484;2023-03-31T11:43:48;48.40;;;23.23;;
39738;SDS011;25422;48.286;8.484;2023-03-31T11:46:18;5.30;;;2.40;;
39738;SDS011;25422;48.286;8.484;2023-03-31T11:54:32;4.32;;;1.63;;
39738;SDS011;25422;48.286;8.484;2023-03-31T11:57:13;27.52;;;14.25;;
39738;SDS011;25422;48.286;8.484;2023-03-31T11:59:46;19.02;;;9.70;;
39738;SDS011;25422;48.286;8.484;2023-03-31T12:02:19;7.18;;;1.60;;
39738;SDS011;25422;48.286;8.484;2023-03-31T12:05:03;3.17;;;1.20;;
39738;SDS011;25422;48.286;8.484;2023-03-31T12:07:33;3.53;;;1.75;;
39738;SDS011;25422;48.286;8.484;2023-03-31T12:10:14;5.57;;;1.60;;
39738;SDS011;25422;48.286;8.484;2023-03-31T12:12:45;3.85;;;1.20;;
39738;SDS011;25422;48.286;8.484;2023-03-31T12:17:59;3.95;;;1.10;;
39738;SDS011;25422;48.286;8.484;2023-03-31T12:20:29;4.10;;;1.00;;
39738;SDS011;25422;48.286;8.484;2023-03-31T12:22:59;5.88;;;1.10;;
39738;SDS011;25422;48.286;8.484;2023-03-31T12:25:30;2.72;;;0.88;;
39738;SDS011;25422;48.286;8.484;2023-03-31T12:28:05;5.60;;;1.10;;
39738;SDS011;25422;48.286;8.484;2023-03-31T12:30:31;2.92;;;1.02;;
39738;SDS011;25422;48.286;8.484;2023-03-31T12:40:56;3.92;;;1.50;;
39738;SDS011;25422;48.286;8.484;2023-03-31T12:43:36;3.60;;;1.20;;
39738;SDS011;25422;48.286;8.484;2023-03-31T12:46:23;5.55;;;1.35;;
39738;SDS011;25422;48.286;8.484;2023-03-31T12:51:36;3.35;;;1.17;;
39738;SDS011;25422;48.286;8.484;2023-03-31T12:54:30;3.85;;;1.10;;
39738;SDS011;25422;48.286;8.484;2023-03-31T12:59:33;4.85;;;1.35;;
39738;SDS011;25422;48.286;8.484;2023-03-31T13:02:27;5.03;;;1.30;;
39738;SDS011;25422;48.286;8.484;2023-03-31T13:04:52;4.38;;;1.50;;
39738;SDS011;25422;48.286;8.484;2023-03-31T13:12:42;6.90;;;1.83;;
39738;SDS011;25422;48.286;8.484;2023-03-31T13:15:24;6.90;;;2.25;;
39738;SDS011;25422;48.286;8.484;2023-03-31T13:17:58;6.30;;;1.73;;
39738;SDS011;25422;48.286;8.484;2023-03-31T13:20:33;4.70;;;1.48;;
39738;SDS011;25422;48.286;8.484;2023-03-31T13:23:13;7.68;;;1.50;;
39738;SDS011;25422;48.286;8.484;2023-03-31T13:25:44;5.88;;;1.85;;
39738;SDS011;25422;48.286;8.484;2023-03-31T13:30:46;7.93;;;1.70;;
39738;SDS011;25422;48.286;8.484;2023-03-31T13:35:46;3.97;;;1.35;;
39738;SDS011;25422;48.286;8.484;2023-03-31T13:50:36;4.28;;;1.20;;
39738;SDS011;25422;48.286;8.484;2023-03-31T13:53:24;5.88;;;1.50;;
39738;SDS011;25422;48.286;8.484;2023-03-31T14:02:00;7.70;;;1.40;;
39738;SDS011;25422;48.286;8.484;2023-03-31T14:07:21;5.10;;;1.45;;
39738;SDS011;25422;48.286;8.484;2023-03-31T14:09:56;6.20;;;1.50;;
39738;SDS011;25422;48.286;8.484;2023-03-31T14:12:31;4.05;;;1.50;;
39738;SDS011;25422;48.286;8.484;2023-03-31T14:14:58;4.18;;;1.20;;
39738;SDS011;25422;48.286;8.484;2023-03-31T14:17:36;6.63;;;1.50;;
39738;SDS011;25422;48.286;8.484;2023-03-31T14:25:43;4.25;;;1.98;;
39738;SDS011;25422;48.286;8.484;2023-03-31T14:28:21;3.55;;;1.33;;
39738;SDS011;25422;48.286;8.484;2023-03-31T14:36:05;3.03;;;1.17;;
39738;SDS011;25422;48.286;8.484;2023-03-31T14:38:39;3.47;;;0.93;;
39738;SDS011;25422;48.286;8.484;2023-03-31T14:41:05;3.45;;;1.10;;
39738;SDS011;25422;48.286;8.484;2023-03-31T14:43:32;3.25;;;1.35;;
39738;SDS011;25422;48.286;8.484;2023-03-31T14:46:01;3.22;;;1.13;;
39738;SDS011;25422;48.286;8.484;2023-03-31T14:48:33;2.25;;;1.40;;
39738;SDS011;25422;48.286;8.484;2023-03-31T14:51:09;2.97;;;1.60;;
39738;SDS011;25422;48.286;8.484;2023-03-31T14:53:37;2.40;;;1.52;;
39738;SDS011;25422;48.286;8.484;2023-03-31T14:56:04;2.88;;;1.25;;
39738;SDS011;25422;48.286;8.484;2023-03-31T14:58:33;3.15;;;1.33;;
39738;SDS011;25422;48.286;8.484;2023-03-31T15:01:03;4.55;;;1.33;;
39738;SDS011;25422;48.286;8.484;2023-03-31T15:03:31;5.68;;;1.50;;
39738;SDS011;25422;48.286;8.484;2023-03-31T15:05:58;2.85;;;1.40;;
39738;SDS011;25422;48.286;8.484;2023-03-31T15:08:25;3.92;;;1.20;;
39738;SDS011;25422;48.286;8.484;2023-03-31T15:11:00;3.03;;;1.15;;
39738;SDS011;25422;48.286;8.484;2023-03-31T15:13:33;6.15;;;1.60;;
39738;SDS011;25422;48.286;8.484;2023-03-31T15:19:20;8.65;;;4.65;;
39738;SDS011;25422;48.286;8.484;2023-03-31T15:21:55;9.45;;;4.55;;
39738;SDS011;25422;48.286;8.484;2023-03-31T15:24:26;11.45;;;6.53;;
39738;SDS011;25422;48.286;8.484;2023-03-31T15:26:58;5.32;;;1.88;;
39738;SDS011;25422;48.286;8.484;2023-03-31T15:32:00;6.35;;;2.63;;
39738;SDS011;25422;48.286;8.484;2023-03-31T15:34:31;6.53;;;2.50;;
39738;SDS011;25422;48.286;8.484;2023-03-31T15:36:58;3.72;;;1.55;;
39738;SDS011;25422;48.286;8.484;2023-03-31T15:39:25;6.60;;;2.45;;
39738;SDS011;25422;48.286;8.484;2023-03-31T15:41:54;4.25;;;1.52;;
39738;SDS011;25422;48.286;8.484;2023-03-31T15:47:23;8.88;;;1.70;;
39738;SDS011;25422;48.286;8.484;2023-03-31T15:49:56;4.97;;;1.38;;
39738;SDS011;25422;48.286;8.484;2023-03-31T15:52:37;4.40;;;1.60;;
39738;SDS011;25422;48.286;8.484;2023-03-31T15:57:48;8.27;;;2.92;;
39738;SDS011;25422;48.286;8.484;2023-03-31T16:03:01;10.73;;;3.47;;
39738;SDS011;25422;48.286;8.484;2023-03-31T16:08:17;4.90;;;1.77;;
39738;SDS011;25422;48.286;8.484;2023-03-31T16:11:08;6.25;;;2.53;;
39738;SDS011;25422;48.286;8.484;2023-03-31T16:13:41;8.23;;;4.00;;
39738;SDS011;25422;48.286;8.484;2023-03-31T16:16:11;8.00;;;3.30;;
39738;SDS011;25422;48.286;8.484;2023-03-31T16:18:43;6.20;;;1.48;;
39738;SDS011;25422;48.286;8.484;2023-03-31T16:21:13;9.98;;;3.95;;
39738;SDS011;25422;48.286;8.484;2023-03-31T16:23:50;10.35;;;3.60;;
39738;SDS011;25422;48.286;8.484;2023-03-31T16:26:23;7.47;;;2.83;;
39738;SDS011;25422;48.286;8.484;2023-03-31T16:28:52;11.32;;;4.70;;
39738;SDS011;25422;48.286;8.484;2023-03-31T16:31:37;8.73;;;3.53;;
39738;SDS011;25422;48.286;8.484;2023-03-31T16:34:08;10.05;;;4.15;;
39738;SDS011;25422;48.286;8.484;2023-03-31T16:36:34;10.32;;;3.50;;
39738;SDS011;25422;48.286;8.484;2023-03-31T16:39:00;7.50;;;2.60;;
39738;SDS011;25422;48.286;8.484;2023-03-31T16:41:29;6.97;;;2.20;;
39738;SDS011;25422;48.286;8.484;2023-03-31T16:43:55;5.55;;;1.80;;
39738;SDS011;25422;48.286;8.484;2023-03-31T16:46:21;7.97;;;2.22;;
39738;SDS011;25422;48.286;8.484;2023-03-31T16:48:47;10.13;;;3.95;;
39738;SDS011;25422;48.286;8.484;2023-03-31T16:51:13;18.50;;;7.38;;
39738;SDS011;25422;48.286;8.484;2023-03-31T16:53:39;5.43;;;1.73;;
39738;SDS011;25422;48.286;8.484;2023-03-31T16:56:05;14.02;;;6.80;;
39738;SDS011;25422;48.286;8.484;2023-03-31T16:58:32;11.63;;;5.60;;
39738;SDS011;25422;48.286;8.484;2023-03-31T17:00:58;10.98;;;5.55;;
39738;SDS011;25422;48.286;8.484;2023-03-31T17:03:24;9.68;;;5.70;;
39738;SDS011;25422;48.286;8.484;2023-03-31T17:05:51;10.13;;;4.75;;
39738;SDS011;25422;48.286;8.484;2023-03-31T17:08:19;7.60;;;3.95;;
39738;SDS011;25422;48.286;8.484;2023-03-31T17:11:02;7.75;;;5.05;;
39738;SDS011;25422;48.286;8.484;2023-03-31T17:13:29;7.97;;;3.22;;
39738;SDS011;25422;48.286;8.484;2023-03-31T17:15:56;9.18;;;4.47;;
39738;SDS011;25422;48.286;8.484;2023-03-31T17:18:23;6.35;;;1.50;;
39738;SDS011;25422;48.286;8.484;2023-03-31T17:20:50;7.30;;;4.18;;
39738;SDS011;25422;48.286;8.484;2023-03-31T17:23:17;5.43;;;2.28;;
39738;SDS011;25422;48.286;8.484;2023-03-31T17:25:47;9.40;;;3.55;;
39738;SDS011;25422;48.286;8.484;2023-03-31T17:28:13;5.80;;;3.15;;
39738;SDS011;25422;48.286;8.484;2023-03-31T17:30:39;8.88;;;3.28;;
39738;SDS011;25422;48.286;8.484;2023-03-31T17:33:06;3.60;;;2.58;;
39738;SDS011;25422;48.286;8.484;2023-03-31T17:35:31;7.85;;;2.50;;
39738;SDS011;25422;48.286;8.484;2023-03-31T17:37:57;4.28;;;1.98;;
39738;SDS011;25422;48.286;8.484;2023-03-31T17:40:23;14.60;;;6.20;;
39738;SDS011;25422;48.286;8.484;2023-03-31T17:42:48;17.90;;;10.65;;
39738;SDS011;25422;48.286;8.484;2023-03-31T17:45:14;11.80;;;4.55;;
39738;SDS011;25422;48.286;8.484;2023-03-31T17:47:40;8.60;;;3.33;;
39738;SDS011;25422;48.286;8.484;2023-03-31T17:50:07;7.88;;;3.75;;
39738;SDS011;25422;48.286;8.484;2023-03-31T17:52:34;6.28;;;2.78;;
39738;SDS011;25422;48.286;8.484;2023-03-31T17:55:00;7.50;;;2.58;;
39738;SDS011;25422;48.286;8.484;2023-03-31T17:57:28;7.00;;;3.47;;
39738;SDS011;25422;48.286;8.484;2023-03-31T17:59:55;3.83;;;1.30;;
39738;SDS011;25422;48.286;8.484;2023-03-31T18:02:21;5.20;;;1.17;;